Overview Statistics Trail Chart Weather Telemetry Raw packets
 

This is the latest recevied weather packets stored in our database for station/object KB4JHU-15. If no packets are shown the sender has not sent any weather packets the latest 10 day(s).

<< 6 7 8 9 10 11 12 >>
Time Temp. Humidity Pressure Rain* Wind** Luminosity Snow
1788269085 26.67° C 79% - 0 mm - - -
1788267284 23.33° C 91% - 0 mm - - -
1788265483 21.67° C 94% - 0 mm - - -
1788263682 21.11° C 94% - 0 mm - - -
1788261881 21.11° C 94% - 0 mm - - -
1788260080 21.11° C 94% - 0 mm - - -
1788258279 21.67° C 94% - 0 mm - - -
1788256478 21.67° C 94% - 0 mm - - -
1788254677 21.67° C 94% - 0 mm - - -
1788252876 22.22° C 92% - 0 mm - - -
1788251075 21.67° C 92% - 0 mm - - -
1788249274 22.22° C 92% - 0 mm - - -
1788247473 22.78° C 91% - 0 mm - - -
1788245672 23.33° C 90% - 0 mm - - -
1788243871 23.33° C 89% - 0 mm - - -
1788242070 23.33° C 88% - 0 mm - - -
1788240269 23.89° C 87% - 0 mm - - -
1788238468 23.89° C 84% - 0 mm - - -
1788236667 25° C 82% - 0 mm - - -
1788234866 26.11° C 82% - 0 mm - - -
1788233065 25° C 81% - 0 mm - - -
1788231264 25.56° C 78% - 0 mm - - -
1788229463 26.11° C 76% - 0 mm - - -
1788227662 28.33° C 64% - 0 mm - - -
1788225861 28.33° C 64% - 0 mm - - -

* Rain latest hour (hover to see other rain measurements)
** Current wind speed in m/s (hover to see current wind gust speed)